Ana Sayfa
METAR-TAF:

METAR-TAF

Havaalanları :

Lazkiye Havaalanı

Lazkiye, Suriye

Enlem: 35-32N, Boylam: 035-46E, yükseklik: 7 m

Güncel hava durumu gözlemi

Rapor saat 20:00 UTC de 38 dakika önce yapıldı.
Rüzgar doğu/güneydoğudan 11 kt
Sıcaklık 22°C
Nem 83%
Basınç 1014 hPa
Görüş mesafesi 10 km veya daha fazla
3000 ft yükseklikte parçalı bulutlu

METAR: OSLK 232000Z 11011KT 9999 SCT030 22/19 Q1014

Saat: 23:38 (20:38 UTC)

Tahmin

Ayın 23'si saat 18 UTC'den ayın 24'si saat 18 UTC'ye kadar geçerli Tahmin
Rüzgar doğudan 5 kt
Görüş mesafesi 10 km veya daha fazla
3000 ft yükseklikte az bulutlu
Dönüşüyor
ayın 24'si saat 08 UTC'den ayın 24'si saat 10 UTC'ye kadar
Rüzgar batı/güneybatıdan 10 kt

TAF: OSLK 2318/2418 10005KT 9999 FEW030 BECMG 2408/2410 24010KT

4.000'den fazla havaalanı için hava durumu gözlemleri ve tahminleri (METAR ve TAF raporları).

Kullanılabilir istasyonlar harita üzerinde sarı ve kırmızı noktalarla gösterilir.

İstasyonun adını görmek için fareyi noktanın üzerinde gezdirin.

Sonrasında hava gözlem ve tahminlerini görmek için tıklayın.

Haritayı değiştirmek için: yaklaştırmak için siyah artı işaretli yeşil düğmeye ve uzaklaştırmak için de eksi işaretli düğmeye hızla tıklayın; bitişik haritalar için yeşil okları kullanın.


METAR-TAF: